createdAt,value
2023-01-20T00:01:17.355Z,8.43
2023-01-20T00:03:46.072Z,7.83
2023-01-20T00:06:14.971Z,8.40
2023-01-20T00:08:43.633Z,7.85
2023-01-20T00:11:13.863Z,8.00
2023-01-20T00:13:43.357Z,7.05
2023-01-20T00:16:12.735Z,8.48
2023-01-20T00:18:42.414Z,6.93
2023-01-20T00:21:12.395Z,8.50
2023-01-20T00:23:41.004Z,7.70
2023-01-20T00:26:11.382Z,6.67
2023-01-20T00:28:39.971Z,9.50
2023-01-20T00:31:14.724Z,6.63
2023-01-20T00:33:43.657Z,7.93
2023-01-20T00:36:12.986Z,6.65
2023-01-20T00:38:41.477Z,7.78
2023-01-20T00:41:10.276Z,6.67
2023-01-20T00:43:38.845Z,6.57
2023-01-20T00:46:08.048Z,8.07
2023-01-20T00:48:38.466Z,7.63
2023-01-20T00:51:08.060Z,6.03
2023-01-20T00:53:36.575Z,6.97
2023-01-20T00:56:04.991Z,1.73
2023-01-20T00:58:33.142Z,7.17
2023-01-20T01:01:01.412Z,2.90
2023-01-20T01:03:29.715Z,7.43
2023-01-20T01:06:09.813Z,6.40
2023-01-20T01:08:38.429Z,6.37
2023-01-20T01:11:07.754Z,5.40
2023-01-20T01:13:37.274Z,3.58
2023-01-20T01:16:06.232Z,5.83
2023-01-20T01:18:34.323Z,3.03
2023-01-20T01:21:09.622Z,6.63
2023-01-20T01:23:37.813Z,7.47
2023-01-20T01:26:06.331Z,5.80
2023-01-20T01:28:34.453Z,6.70
2023-01-20T01:31:03.855Z,6.10
2023-01-20T01:33:32.836Z,7.17
2023-01-20T01:36:02.451Z,6.60
2023-01-20T01:38:32.408Z,6.88
2023-01-20T01:41:00.870Z,6.93
2023-01-20T01:43:31.069Z,7.25
2023-01-20T01:45:59.958Z,6.40
2023-01-20T01:48:32.134Z,7.30
2023-01-20T01:51:06.534Z,7.43
2023-01-20T01:53:41.384Z,7.47
2023-01-20T01:56:10.923Z,6.60
2023-01-20T01:58:41.939Z,7.60
2023-01-20T02:01:10.426Z,6.70
2023-01-20T02:03:48.989Z,3.92
2023-01-20T02:06:17.438Z,7.10
2023-01-20T02:08:47.774Z,4.73
2023-01-20T02:11:15.919Z,7.73
2023-01-20T02:13:44.635Z,6.27
2023-01-20T02:16:19.204Z,7.30
2023-01-20T02:19:01.886Z,7.13
2023-01-20T02:21:58.609Z,7.67
2023-01-20T02:24:59.336Z,6.60
2023-01-20T02:27:46.654Z,8.37
2023-01-20T02:30:39.761Z,8.47
2023-01-20T02:33:14.483Z,8.20
2023-01-20T02:35:47.061Z,8.23
2023-01-20T02:38:25.413Z,7.03
2023-01-20T02:41:03.201Z,6.70
2023-01-20T02:43:36.592Z,7.33
2023-01-20T02:46:10.191Z,7.60
2023-01-20T02:48:44.440Z,8.57
2023-01-20T02:51:17.242Z,6.40
2023-01-20T02:53:49.587Z,7.13
2023-01-20T02:56:20.186Z,6.53
2023-01-20T02:58:51.835Z,7.50
2023-01-20T03:01:25.573Z,6.03
2023-01-20T03:04:00.681Z,7.83
2023-01-20T03:06:33.922Z,7.60
2023-01-20T03:09:06.575Z,7.85
2023-01-20T03:11:36.959Z,8.20
2023-01-20T03:14:09.789Z,5.57
2023-01-20T03:16:38.975Z,6.60
2023-01-20T03:19:08.997Z,7.53
2023-01-20T03:21:37.826Z,6.10
2023-01-20T03:24:07.038Z,5.77
2023-01-20T03:26:35.288Z,7.23
2023-01-20T03:29:06.907Z,7.00
2023-01-20T03:31:38.957Z,8.10
2023-01-20T03:34:13.067Z,6.83
2023-01-20T03:36:42.827Z,5.73
2023-01-20T03:39:11.304Z,6.90
2023-01-20T03:41:51.021Z,6.13
2023-01-20T03:44:25.530Z,6.33
2023-01-20T03:46:58.162Z,5.57
2023-01-20T03:49:34.103Z,5.77
2023-01-20T03:52:07.315Z,4.97
2023-01-20T03:54:42.263Z,5.07
2023-01-20T03:57:15.836Z,6.40
2023-01-20T03:59:47.048Z,6.30
2023-01-20T04:02:15.203Z,6.50
2023-01-20T04:04:46.386Z,6.07
2023-01-20T04:07:20.032Z,5.37
2023-01-20T04:09:52.073Z,5.30
2023-01-20T04:12:20.284Z,7.00
2023-01-20T04:14:48.841Z,5.77
2023-01-20T04:17:17.457Z,6.43
2023-01-20T04:19:46.996Z,6.63
2023-01-20T04:22:20.883Z,4.97
2023-01-20T04:24:53.590Z,6.47
2023-01-20T04:27:21.875Z,6.60
2023-01-20T04:29:49.945Z,6.07
2023-01-20T04:32:18.362Z,6.13
2023-01-20T04:34:47.857Z,4.87
2023-01-20T04:37:15.946Z,6.40
2023-01-20T04:39:44.158Z,6.53
2023-01-20T04:42:12.310Z,5.77
2023-01-20T04:44:40.743Z,7.37
2023-01-20T04:47:09.165Z,6.73
2023-01-20T04:49:37.420Z,5.70
2023-01-20T04:52:07.330Z,6.60
2023-01-20T04:54:35.861Z,6.67
2023-01-20T04:57:04.342Z,6.73
2023-01-20T04:59:32.494Z,7.30
2023-01-20T05:02:00.781Z,7.10
2023-01-20T05:04:28.937Z,6.87
2023-01-20T05:06:57.319Z,7.00
2023-01-20T05:09:27.218Z,5.97
2023-01-20T05:11:55.359Z,7.77
2023-01-20T05:14:23.471Z,7.23
2023-01-20T05:16:51.660Z,9.20
2023-01-20T05:19:19.913Z,9.43
2023-01-20T05:21:48.079Z,8.60
2023-01-20T05:24:16.165Z,8.03
2023-01-20T05:26:45.710Z,6.97
2023-01-20T05:29:14.130Z,7.77
2023-01-20T05:31:43.626Z,6.27
2023-01-20T05:34:12.493Z,6.50
2023-01-20T05:36:40.597Z,7.90
2023-01-20T05:39:08.966Z,7.80
2023-01-20T05:41:37.123Z,7.70
2023-01-20T05:44:07.094Z,6.87
2023-01-20T05:46:35.524Z,5.57
2023-01-20T05:49:03.744Z,6.60
2023-01-20T05:51:32.217Z,6.70
2023-01-20T05:54:00.744Z,5.77
2023-01-20T05:56:29.180Z,5.57
2023-01-20T05:58:57.511Z,5.60
2023-01-20T06:01:27.037Z,5.80
2023-01-20T06:03:55.335Z,6.87
2023-01-20T06:06:23.457Z,7.03
2023-01-20T06:08:54.056Z,6.60
2023-01-20T06:11:22.278Z,5.57
2023-01-20T06:13:51.005Z,5.43
2023-01-20T06:16:20.014Z,7.17
2023-01-20T06:18:49.999Z,5.93
2023-01-20T06:21:18.097Z,6.27
2023-01-20T06:23:46.494Z,7.27
2023-01-20T06:26:15.309Z,7.20
2023-01-20T06:28:43.725Z,6.50
2023-01-20T06:31:14.337Z,6.83
2023-01-20T06:33:43.062Z,7.50
2023-01-20T06:36:14.111Z,7.10
2023-01-20T06:38:42.246Z,7.80
2023-01-20T06:41:11.773Z,6.90
2023-01-20T06:43:41.952Z,7.50
2023-01-20T06:46:13.325Z,7.87
2023-01-20T06:48:41.707Z,8.30
2023-01-20T06:51:14.926Z,7.57
2023-01-20T06:53:43.208Z,7.40
2023-01-20T06:56:13.363Z,9.03
2023-01-20T06:58:42.154Z,8.30
2023-01-20T07:01:14.426Z,7.47
2023-01-20T07:03:44.422Z,7.87
2023-01-20T07:06:19.888Z,7.63
2023-01-20T07:08:48.240Z,7.77
2023-01-20T07:11:16.817Z,6.57
2023-01-20T07:13:44.971Z,6.40
2023-01-20T07:16:15.521Z,7.67
2023-01-20T07:18:44.945Z,7.13
2023-01-20T07:21:13.502Z,7.60
2023-01-20T07:23:43.504Z,7.50
2023-01-20T07:26:13.894Z,6.77
2023-01-20T07:28:42.297Z,6.53
2023-01-20T07:31:11.899Z,7.37
2023-01-20T07:33:40.336Z,7.27
2023-01-20T07:36:09.626Z,6.33
2023-01-20T07:38:38.278Z,8.60
2023-01-20T07:41:10.869Z,7.07
2023-01-20T07:43:39.633Z,7.17
2023-01-20T07:46:07.868Z,9.07
2023-01-20T07:48:36.205Z,8.60
2023-01-20T07:51:07.289Z,9.20
2023-01-20T07:53:37.345Z,7.90
2023-01-20T07:56:08.426Z,7.03
2023-01-20T07:58:37.108Z,7.57
2023-01-20T08:01:09.590Z,8.43
2023-01-20T08:03:38.219Z,9.33
2023-01-20T08:06:07.714Z,10.40
2023-01-20T08:08:36.803Z,7.47
2023-01-20T08:11:08.023Z,11.80
2023-01-20T08:13:36.181Z,9.20
2023-01-20T08:16:06.384Z,10.23
2023-01-20T08:18:35.334Z,11.33
2023-01-20T08:21:06.768Z,9.80
2023-01-20T08:23:35.404Z,11.35
2023-01-20T08:26:05.694Z,7.77
2023-01-20T08:28:37.071Z,7.80
2023-01-20T08:31:06.994Z,8.47
2023-01-20T08:33:35.239Z,9.27
2023-01-20T08:36:08.909Z,7.60
2023-01-20T08:38:38.178Z,9.07
2023-01-20T08:41:09.152Z,7.60
2023-01-20T08:43:38.952Z,9.00
2023-01-20T08:46:09.071Z,6.22
2023-01-20T08:48:39.430Z,7.72
2023-01-20T08:51:09.612Z,6.35
2023-01-20T08:53:38.098Z,7.10
2023-01-20T08:56:06.811Z,7.73
2023-01-20T08:58:34.993Z,8.75
2023-01-20T09:01:09.953Z,8.02
2023-01-20T09:03:38.354Z,7.78
2023-01-20T09:06:07.191Z,6.40
2023-01-20T09:08:37.163Z,7.13
2023-01-20T09:11:06.682Z,8.60
2023-01-20T09:13:34.750Z,7.82
2023-01-20T09:16:05.116Z,8.55
2023-01-20T09:18:34.081Z,7.97
2023-01-20T09:21:06.962Z,9.80
2023-01-20T09:23:36.371Z,8.75
2023-01-20T09:26:05.708Z,5.38
2023-01-20T09:28:34.472Z,9.85
2023-01-20T09:31:05.334Z,8.60
2023-01-20T09:33:36.158Z,8.30
2023-01-20T09:36:06.082Z,8.02
2023-01-20T09:38:51.523Z,8.05
2023-01-20T09:41:44.243Z,7.93
2023-01-20T09:44:43.429Z,9.20
2023-01-20T09:47:22.952Z,7.85
2023-01-20T09:50:29.210Z,7.53
2023-01-20T09:53:06.609Z,8.68
2023-01-20T09:55:42.464Z,9.00
2023-01-20T09:58:18.920Z,7.35
2023-01-20T10:00:50.698Z,8.95
2023-01-20T10:03:29.392Z,7.30
2023-01-20T10:06:00.339Z,9.00
2023-01-20T10:08:33.884Z,8.68
2023-01-20T10:11:08.041Z,8.82
2023-01-20T10:13:47.589Z,7.97
2023-01-20T10:16:25.353Z,7.80
2023-01-20T10:19:01.403Z,7.82
2023-01-20T10:21:37.047Z,10.02
2023-01-20T10:24:11.706Z,8.57
2023-01-20T10:26:47.574Z,8.90
2023-01-20T10:29:23.768Z,8.15
2023-01-20T10:32:02.195Z,8.15
2023-01-20T10:34:39.273Z,8.23
2023-01-20T10:37:10.811Z,9.48
2023-01-20T10:39:45.723Z,7.45
2023-01-20T10:42:15.858Z,7.43
2023-01-20T10:44:44.966Z,8.32
2023-01-20T10:47:43.087Z,8.75
2023-01-20T10:50:42.832Z,7.75
2023-01-20T10:53:34.420Z,8.52
2023-01-20T10:56:14.795Z,8.00
2023-01-20T10:58:45.640Z,8.63
2023-01-20T11:01:19.309Z,7.75
2023-01-20T11:03:49.930Z,8.73
2023-01-20T11:06:22.478Z,8.20
2023-01-20T11:08:51.277Z,7.63
2023-01-20T11:11:22.091Z,7.82
2023-01-20T11:13:52.061Z,8.57
2023-01-20T11:16:24.602Z,7.57
2023-01-20T11:19:01.629Z,8.95
2023-01-20T11:21:36.588Z,7.82
2023-01-20T11:24:26.142Z,6.90
2023-01-20T11:27:02.813Z,9.55
2023-01-20T11:29:36.376Z,7.55
2023-01-20T11:32:04.941Z,8.23
2023-01-20T11:34:35.025Z,8.75
2023-01-20T11:37:19.398Z,7.15
2023-01-20T11:40:00.369Z,8.57
2023-01-20T11:42:29.631Z,8.20
2023-01-20T11:45:15.255Z,7.25
2023-01-20T11:47:47.907Z,7.97
2023-01-20T11:50:28.343Z,6.65
2023-01-20T11:53:23.833Z,7.75
2023-01-20T11:55:54.561Z,8.95
2023-01-20T11:58:25.870Z,7.47
2023-01-20T12:01:00.779Z,7.63
2023-01-20T12:04:04.613Z,8.55
2023-01-20T12:06:36.188Z,7.93
2023-01-20T12:09:11.377Z,7.68
2023-01-20T12:11:46.980Z,8.45
2023-01-20T12:14:28.837Z,7.30
2023-01-20T12:17:16.763Z,8.02
2023-01-20T12:20:10.909Z,8.35
2023-01-20T12:22:46.119Z,7.80
2023-01-20T12:25:21.782Z,8.10
2023-01-20T12:27:54.619Z,8.98
2023-01-20T12:30:37.557Z,8.43
2023-01-20T12:33:06.768Z,7.47
2023-01-20T12:35:45.171Z,8.70
2023-01-20T12:38:20.662Z,7.45
2023-01-20T12:40:53.781Z,7.47
2023-01-20T12:43:39.408Z,7.90
2023-01-20T12:46:22.619Z,7.10
2023-01-20T12:49:01.111Z,6.82
2023-01-20T12:51:44.667Z,7.57
2023-01-20T12:54:48.391Z,7.35
2023-01-20T12:57:29.499Z,6.88
2023-01-20T13:00:21.026Z,7.13
2023-01-20T13:03:08.600Z,5.63
2023-01-20T13:05:51.339Z,7.15
2023-01-20T13:08:25.517Z,6.70
2023-01-20T13:11:03.907Z,6.55
2023-01-20T13:13:56.318Z,6.88
2023-01-20T13:16:33.259Z,7.82
2023-01-20T13:19:08.856Z,6.22
2023-01-20T13:21:36.946Z,7.00
2023-01-20T13:24:07.600Z,6.47
2023-01-20T13:26:37.883Z,7.13
2023-01-20T13:29:07.525Z,5.93
2023-01-20T13:31:46.618Z,7.28
2023-01-20T13:34:36.543Z,7.63
2023-01-20T13:37:38.429Z,6.55
2023-01-20T13:40:49.805Z,6.60
2023-01-20T13:43:52.716Z,6.28
2023-01-20T13:46:48.325Z,6.15
2023-01-20T13:49:31.289Z,5.63
2023-01-20T13:51:59.403Z,6.10
2023-01-20T13:54:49.113Z,6.82
2023-01-20T13:57:47.202Z,7.10
2023-01-20T14:00:24.715Z,7.13
2023-01-20T14:02:54.257Z,6.90
2023-01-20T14:05:41.071Z,7.25
2023-01-20T14:08:16.229Z,6.38
2023-01-20T14:10:44.986Z,5.70
2023-01-20T14:13:14.081Z,6.45
2023-01-20T14:15:42.319Z,5.95
2023-01-20T14:18:18.611Z,6.20
2023-01-20T14:21:03.493Z,6.15
2023-01-20T14:23:39.446Z,6.45
2023-01-20T14:26:10.686Z,6.18
2023-01-20T14:28:50.447Z,6.13
2023-01-20T14:31:37.828Z,6.38
2023-01-20T14:34:25.333Z,6.00
2023-01-20T14:36:54.439Z,6.00
2023-01-20T14:39:25.412Z,6.20
2023-01-20T14:41:55.310Z,6.22
2023-01-20T14:44:25.465Z,7.10
2023-01-20T14:46:55.234Z,6.40
2023-01-20T14:49:31.964Z,8.02
2023-01-20T14:52:02.446Z,7.70
2023-01-20T14:54:39.265Z,7.55
2023-01-20T14:57:30.367Z,6.40
2023-01-20T15:00:10.497Z,7.00
2023-01-20T15:02:39.788Z,6.55
2023-01-20T15:05:22.974Z,6.53
2023-01-20T15:08:04.389Z,6.68
2023-01-20T15:10:32.730Z,5.70
2023-01-20T15:13:01.862Z,5.72
2023-01-20T15:15:31.937Z,6.07
2023-01-20T15:18:18.653Z,6.07
2023-01-20T15:20:51.039Z,6.30
2023-01-20T15:23:22.854Z,6.18
2023-01-20T15:25:52.770Z,6.15
2023-01-20T15:28:31.194Z,6.22
2023-01-20T15:31:00.308Z,7.10
2023-01-20T15:33:28.612Z,5.93
2023-01-20T15:36:00.364Z,6.63
2023-01-20T15:38:32.130Z,5.95
2023-01-20T15:41:00.251Z,6.50
2023-01-20T15:43:28.773Z,6.95
2023-01-20T15:45:56.848Z,6.38
2023-01-20T15:48:25.020Z,6.93
2023-01-20T15:50:53.112Z,6.93
2023-01-20T15:53:22.735Z,6.20
2023-01-20T15:55:52.940Z,5.85
2023-01-20T15:58:26.816Z,6.22
2023-01-20T16:00:56.219Z,6.43
2023-01-20T16:03:24.541Z,5.32
2023-01-20T16:05:55.039Z,6.32
2023-01-20T16:08:26.764Z,6.82
2023-01-20T16:10:55.068Z,6.50
2023-01-20T16:13:23.160Z,5.53
2023-01-20T16:15:51.547Z,6.80
2023-01-20T16:18:20.974Z,6.22
2023-01-20T16:20:49.789Z,7.45
2023-01-20T16:23:18.162Z,7.72
2023-01-20T16:25:47.689Z,8.70
2023-01-20T16:28:18.865Z,7.70
2023-01-20T16:30:47.436Z,7.57
2023-01-20T16:33:20.698Z,8.15
2023-01-20T16:35:49.552Z,7.32
2023-01-20T16:38:21.530Z,7.70
2023-01-20T16:40:53.436Z,8.18
2023-01-20T16:43:22.758Z,7.38
2023-01-20T16:45:55.322Z,7.50
2023-01-20T16:48:25.262Z,6.70
2023-01-20T16:50:53.954Z,7.68
2023-01-20T16:53:22.138Z,7.53
2023-01-20T16:55:51.589Z,7.95
2023-01-20T16:58:19.670Z,8.48
2023-01-20T17:00:47.809Z,7.90
2023-01-20T17:03:15.912Z,7.90
2023-01-20T17:05:44.047Z,9.27
2023-01-20T17:08:12.181Z,8.77
2023-01-20T17:10:40.301Z,7.80
2023-01-20T17:13:10.335Z,6.90
2023-01-20T17:15:40.563Z,8.18
2023-01-20T17:18:10.052Z,7.68
2023-01-20T17:20:38.370Z,7.25
2023-01-20T17:23:06.491Z,7.90
2023-01-20T17:25:34.591Z,7.68
2023-01-20T17:28:02.731Z,7.15
2023-01-20T17:30:32.292Z,7.90
2023-01-20T17:33:00.435Z,7.55
2023-01-20T17:35:28.912Z,7.25
2023-01-20T17:37:58.719Z,8.63
2023-01-20T17:40:26.898Z,8.02
2023-01-20T17:42:55.011Z,8.00
2023-01-20T17:45:23.110Z,7.97
2023-01-20T17:47:53.135Z,8.75
2023-01-20T17:50:21.267Z,9.63
2023-01-20T17:52:49.724Z,9.75
2023-01-20T17:55:18.276Z,9.43
2023-01-20T17:57:46.802Z,9.57
2023-01-20T18:00:16.119Z,9.73
2023-01-20T18:02:44.399Z,14.48
2023-01-20T18:05:14.398Z,15.05
2023-01-20T18:07:42.513Z,17.80
2023-01-20T18:10:12.012Z,15.77
2023-01-20T18:12:40.216Z,13.05
2023-01-20T18:15:09.898Z,12.27
2023-01-20T18:17:38.208Z,10.30
2023-01-20T18:20:08.145Z,9.80
2023-01-20T18:22:37.605Z,10.65
2023-01-20T18:25:06.168Z,9.30
2023-01-20T18:27:34.362Z,9.68
2023-01-20T18:30:02.789Z,8.80
2023-01-20T18:32:30.867Z,9.93
2023-01-20T18:34:58.990Z,8.85
2023-01-20T18:37:27.074Z,8.32
2023-01-20T18:39:56.593Z,8.43
2023-01-20T18:42:24.765Z,8.90
2023-01-20T18:44:53.109Z,9.10
2023-01-20T18:47:21.182Z,8.15
2023-01-20T18:49:49.292Z,8.25
2023-01-20T18:52:18.947Z,8.10
2023-01-20T18:54:47.803Z,7.55
2023-01-20T18:57:17.297Z,7.32
2023-01-20T18:59:45.379Z,7.85
2023-01-20T19:02:13.876Z,7.65
2023-01-20T19:04:42.021Z,7.63
2023-01-20T19:07:10.222Z,7.80
2023-01-20T19:09:38.318Z,8.23
2023-01-20T19:12:07.052Z,7.72
2023-01-20T19:14:36.528Z,8.82
2023-01-20T19:17:04.700Z,8.60
2023-01-20T19:19:33.125Z,8.77
2023-01-20T19:22:01.202Z,8.45
2023-01-20T19:24:30.634Z,7.97
2023-01-20T19:27:00.607Z,8.38
2023-01-20T19:29:29.529Z,8.27
2023-01-20T19:31:59.210Z,7.18
2023-01-20T19:34:28.096Z,7.40
2023-01-20T19:36:56.807Z,8.77
2023-01-20T19:39:24.972Z,9.13
2023-01-20T19:41:53.191Z,7.60
2023-01-20T19:44:21.951Z,6.43
2023-01-20T19:46:50.042Z,6.75
2023-01-20T19:49:19.677Z,7.33
2023-01-20T19:51:47.783Z,8.18
2023-01-20T19:54:16.560Z,7.63
2023-01-20T19:56:44.720Z,7.57
2023-01-20T19:59:13.935Z,7.50
2023-01-20T20:01:42.406Z,7.83
2023-01-20T20:04:13.447Z,8.23
2023-01-20T20:06:47.730Z,8.52
2023-01-20T20:09:18.235Z,9.57
2023-01-20T20:11:46.848Z,9.07
2023-01-20T20:14:16.896Z,8.43
2023-01-20T20:16:45.241Z,9.45
2023-01-20T20:19:16.128Z,10.13
2023-01-20T20:21:46.262Z,10.77
2023-01-20T20:24:16.053Z,10.80
2023-01-20T20:26:46.010Z,9.75
2023-01-20T20:29:16.036Z,10.23
2023-01-20T20:31:44.575Z,10.93
2023-01-20T20:34:15.519Z,9.43
2023-01-20T20:36:45.105Z,11.67
2023-01-20T20:39:15.994Z,11.90
2023-01-20T20:41:44.175Z,12.60
2023-01-20T20:44:12.724Z,11.97
2023-01-20T20:46:41.294Z,12.70
2023-01-20T20:49:13.850Z,12.53
2023-01-20T20:51:41.954Z,12.80
2023-01-20T20:54:13.374Z,14.03
2023-01-20T20:56:42.004Z,13.80
2023-01-20T20:59:11.014Z,12.67
2023-01-20T21:01:39.666Z,13.07
2023-01-20T21:04:07.883Z,14.00
2023-01-20T21:06:36.016Z,12.70
2023-01-20T21:09:04.640Z,14.63
2023-01-20T21:11:34.294Z,14.93
2023-01-20T21:14:02.820Z,14.90
2023-01-20T21:16:31.061Z,12.30
2023-01-20T21:19:00.831Z,14.23
2023-01-20T21:21:29.843Z,14.23
2023-01-20T21:23:59.433Z,12.80
2023-01-20T21:26:30.652Z,14.10
2023-01-20T21:29:02.081Z,13.33
2023-01-20T21:31:31.553Z,14.90
2023-01-20T21:34:00.908Z,14.40
2023-01-20T21:36:29.986Z,12.63
2023-01-20T21:38:59.781Z,12.83
2023-01-20T21:41:27.946Z,14.23
2023-01-20T21:44:13.585Z,14.53
2023-01-20T21:46:43.537Z,15.10
2023-01-20T21:49:29.353Z,14.13
2023-01-20T21:52:14.927Z,14.30
2023-01-20T21:54:45.615Z,14.90
2023-01-20T21:57:14.121Z,14.17
2023-01-20T21:59:42.702Z,13.83
2023-01-20T22:02:13.657Z,14.63
2023-01-20T22:04:42.230Z,14.10
2023-01-20T22:07:10.694Z,13.93
2023-01-20T22:09:39.175Z,14.70
2023-01-20T22:12:07.830Z,14.73
2023-01-20T22:14:35.952Z,13.30
2023-01-20T22:17:04.344Z,15.30
2023-01-20T22:19:33.861Z,13.37
2023-01-20T22:22:02.266Z,13.53
2023-01-20T22:24:30.882Z,14.33
2023-01-20T22:26:59.531Z,12.87
2023-01-20T22:29:27.717Z,12.80
2023-01-20T22:31:57.537Z,13.53
2023-01-20T22:34:26.570Z,11.43
2023-01-20T22:36:58.150Z,13.57
2023-01-20T22:39:26.307Z,13.77
2023-01-20T22:41:54.506Z,12.53
2023-01-20T22:44:22.636Z,12.63
2023-01-20T22:46:51.138Z,11.07
2023-01-20T22:49:19.390Z,13.17
2023-01-20T22:51:47.754Z,12.00
2023-01-20T22:54:17.248Z,11.73
2023-01-20T22:56:45.695Z,10.97
2023-01-20T22:59:14.610Z,11.53
2023-01-20T23:01:42.791Z,12.30
2023-01-20T23:04:11.347Z,10.43
2023-01-20T23:06:39.559Z,11.60
2023-01-20T23:09:11.973Z,12.33
2023-01-20T23:11:41.773Z,11.90
2023-01-20T23:14:12.880Z,13.00
2023-01-20T23:16:41.453Z,11.83
2023-01-20T23:19:10.308Z,12.07
2023-01-20T23:21:39.059Z,11.70
2023-01-20T23:24:08.993Z,11.17
2023-01-20T23:26:37.396Z,9.23
2023-01-20T23:29:06.864Z,9.67
2023-01-20T23:31:35.630Z,10.83
2023-01-20T23:34:03.965Z,9.17
2023-01-20T23:36:32.348Z,10.23
2023-01-20T23:39:00.513Z,11.57
2023-01-20T23:41:28.965Z,9.40
2023-01-20T23:43:57.090Z,8.83
2023-01-20T23:46:27.002Z,10.50
2023-01-20T23:48:55.293Z,9.83
2023-01-20T23:51:23.496Z,11.47
2023-01-20T23:53:51.679Z,12.87
2023-01-20T23:56:22.458Z,11.57
2023-01-20T23:58:51.506Z,11.03
